sensor_id;sensor_type;location;lat;lon;timestamp;P1;durP1;ratioP1;P2;durP2;ratioP2
45236;SDS011;30973;51.442;3.580;2022-12-18T00:02:13;45.03;;;24.13;;
45236;SDS011;30973;51.442;3.580;2022-12-18T00:04:40;48.85;;;24.13;;
45236;SDS011;30973;51.442;3.580;2022-12-18T00:07:07;45.95;;;23.80;;
45236;SDS011;30973;51.442;3.580;2022-12-18T00:09:35;48.50;;;25.02;;
45236;SDS011;30973;51.442;3.580;2022-12-18T00:12:06;49.20;;;24.35;;
45236;SDS011;30973;51.442;3.580;2022-12-18T00:14:43;40.83;;;21.60;;
45236;SDS011;30973;51.442;3.580;2022-12-18T00:17:11;43.22;;;22.45;;
45236;SDS011;30973;51.442;3.580;2022-12-18T00:19:39;38.55;;;21.92;;
45236;SDS011;30973;51.442;3.580;2022-12-18T00:22:06;40.33;;;22.10;;
45236;SDS011;30973;51.442;3.580;2022-12-18T00:24:33;38.63;;;20.38;;
45236;SDS011;30973;51.442;3.580;2022-12-18T00:27:01;40.53;;;21.17;;
45236;SDS011;30973;51.442;3.580;2022-12-18T00:29:28;43.15;;;21.73;;
45236;SDS011;30973;51.442;3.580;2022-12-18T00:31:56;45.05;;;21.88;;
45236;SDS011;30973;51.442;3.580;2022-12-18T00:34:23;42.13;;;21.63;;
45236;SDS011;30973;51.442;3.580;2022-12-18T00:36:51;40.90;;;21.70;;
45236;SDS011;30973;51.442;3.580;2022-12-18T00:39:20;40.40;;;20.00;;
45236;SDS011;30973;51.442;3.580;2022-12-18T00:41:47;42.50;;;21.60;;
45236;SDS011;30973;51.442;3.580;2022-12-18T00:44:33;37.17;;;19.90;;
45236;SDS011;30973;51.442;3.580;2022-12-18T00:47:01;36.60;;;20.25;;
45236;SDS011;30973;51.442;3.580;2022-12-18T00:49:28;36.33;;;20.17;;
45236;SDS011;30973;51.442;3.580;2022-12-18T00:51:56;40.55;;;20.88;;
45236;SDS011;30973;51.442;3.580;2022-12-18T00:54:23;41.15;;;21.15;;
45236;SDS011;30973;51.442;3.580;2022-12-18T00:56:52;42.85;;;22.40;;
45236;SDS011;30973;51.442;3.580;2022-12-18T00:59:19;52.70;;;23.27;;
45236;SDS011;30973;51.442;3.580;2022-12-18T01:01:46;52.03;;;25.08;;
45236;SDS011;30973;51.442;3.580;2022-12-18T01:04:14;51.40;;;24.70;;
45236;SDS011;30973;51.442;3.580;2022-12-18T01:06:44;52.03;;;23.88;;
45236;SDS011;30973;51.442;3.580;2022-12-18T01:09:11;45.88;;;22.05;;
45236;SDS011;30973;51.442;3.580;2022-12-18T01:11:39;47.08;;;20.08;;
45236;SDS011;30973;51.442;3.580;2022-12-18T01:14:06;46.33;;;21.40;;
45236;SDS011;30973;51.442;3.580;2022-12-18T01:16:36;45.45;;;21.92;;
45236;SDS011;30973;51.442;3.580;2022-12-18T01:19:04;42.25;;;20.77;;
45236;SDS011;30973;51.442;3.580;2022-12-18T01:21:31;40.58;;;19.45;;
45236;SDS011;30973;51.442;3.580;2022-12-18T01:24:02;41.38;;;19.70;;
45236;SDS011;30973;51.442;3.580;2022-12-18T01:26:30;37.25;;;18.13;;
45236;SDS011;30973;51.442;3.580;2022-12-18T01:28:57;40.30;;;18.92;;
45236;SDS011;30973;51.442;3.580;2022-12-18T01:31:26;35.60;;;18.50;;
45236;SDS011;30973;51.442;3.580;2022-12-18T01:33:54;35.47;;;19.48;;
45236;SDS011;30973;51.442;3.580;2022-12-18T01:36:26;31.58;;;16.92;;
45236;SDS011;30973;51.442;3.580;2022-12-18T01:38:55;36.13;;;19.27;;
45236;SDS011;30973;51.442;3.580;2022-12-18T01:41:24;33.72;;;17.05;;
45236;SDS011;30973;51.442;3.580;2022-12-18T01:43:53;29.92;;;17.20;;
45236;SDS011;30973;51.442;3.580;2022-12-18T01:46:22;29.42;;;15.55;;
45236;SDS011;30973;51.442;3.580;2022-12-18T01:48:52;28.80;;;15.90;;
45236;SDS011;30973;51.442;3.580;2022-12-18T01:51:21;32.90;;;17.00;;
45236;SDS011;30973;51.442;3.580;2022-12-18T01:53:49;30.48;;;16.65;;
45236;SDS011;30973;51.442;3.580;2022-12-18T01:57:08;32.63;;;16.45;;
45236;SDS011;30973;51.442;3.580;2022-12-18T02:00:01;30.75;;;16.15;;
45236;SDS011;30973;51.442;3.580;2022-12-18T02:02:40;31.67;;;16.17;;
45236;SDS011;30973;51.442;3.580;2022-12-18T02:05:09;30.15;;;16.25;;
45236;SDS011;30973;51.442;3.580;2022-12-18T02:10:12;28.70;;;15.65;;
45236;SDS011;30973;51.442;3.580;2022-12-18T02:12:48;27.40;;;15.73;;
45236;SDS011;30973;51.442;3.580;2022-12-18T02:15:26;28.35;;;14.90;;
45236;SDS011;30973;51.442;3.580;2022-12-18T02:17:56;32.13;;;15.43;;
45236;SDS011;30973;51.442;3.580;2022-12-18T02:20:33;29.00;;;14.85;;
45236;SDS011;30973;51.442;3.580;2022-12-18T02:28:31;27.60;;;15.50;;
45236;SDS011;30973;51.442;3.580;2022-12-18T02:31:04;30.52;;;16.13;;
45236;SDS011;30973;51.442;3.580;2022-12-18T02:33:33;26.05;;;14.02;;
45236;SDS011;30973;51.442;3.580;2022-12-18T02:36:02;29.98;;;15.70;;
45236;SDS011;30973;51.442;3.580;2022-12-18T02:38:32;27.02;;;13.70;;
45236;SDS011;30973;51.442;3.580;2022-12-18T02:41:08;24.70;;;13.35;;
45236;SDS011;30973;51.442;3.580;2022-12-18T02:43:36;26.67;;;14.02;;
45236;SDS011;30973;51.442;3.580;2022-12-18T02:48:53;23.23;;;13.10;;
45236;SDS011;30973;51.442;3.580;2022-12-18T02:51:31;30.00;;;14.15;;
45236;SDS011;30973;51.442;3.580;2022-12-18T02:54:28;30.20;;;14.48;;
45236;SDS011;30973;51.442;3.580;2022-12-18T02:56:54;27.33;;;14.18;;
45236;SDS011;30973;51.442;3.580;2022-12-18T02:59:34;26.80;;;13.88;;
45236;SDS011;30973;51.442;3.580;2022-12-18T03:04:45;23.70;;;12.65;;
45236;SDS011;30973;51.442;3.580;2022-12-18T03:07:23;24.67;;;13.10;;
45236;SDS011;30973;51.442;3.580;2022-12-18T03:10:03;21.38;;;12.38;;
45236;SDS011;30973;51.442;3.580;2022-12-18T03:12:37;26.45;;;14.23;;
45236;SDS011;30973;51.442;3.580;2022-12-18T03:15:22;25.73;;;12.82;;
45236;SDS011;30973;51.442;3.580;2022-12-18T03:18:01;24.85;;;13.23;;
45236;SDS011;30973;51.442;3.580;2022-12-18T03:20:30;22.92;;;12.88;;
45236;SDS011;30973;51.442;3.580;2022-12-18T03:23:04;25.27;;;12.57;;
45236;SDS011;30973;51.442;3.580;2022-12-18T03:25:34;22.08;;;12.23;;
45236;SDS011;30973;51.442;3.580;2022-12-18T03:28:03;26.88;;;14.02;;
45236;SDS011;30973;51.442;3.580;2022-12-18T03:30:35;27.55;;;13.40;;
45236;SDS011;30973;51.442;3.580;2022-12-18T03:33:12;24.48;;;12.40;;
45236;SDS011;30973;51.442;3.580;2022-12-18T03:35:45;26.45;;;13.40;;
45236;SDS011;30973;51.442;3.580;2022-12-18T03:38:13;24.25;;;13.05;;
45236;SDS011;30973;51.442;3.580;2022-12-18T03:40:48;25.00;;;14.23;;
45236;SDS011;30973;51.442;3.580;2022-12-18T03:43:20;27.80;;;14.23;;
45236;SDS011;30973;51.442;3.580;2022-12-18T03:45:54;24.15;;;13.30;;
45236;SDS011;30973;51.442;3.580;2022-12-18T03:48:27;28.52;;;14.65;;
45236;SDS011;30973;51.442;3.580;2022-12-18T03:51:03;24.05;;;13.18;;
45236;SDS011;30973;51.442;3.580;2022-12-18T03:56:45;28.83;;;14.88;;
45236;SDS011;30973;51.442;3.580;2022-12-18T03:59:14;29.85;;;14.70;;
45236;SDS011;30973;51.442;3.580;2022-12-18T04:01:45;28.13;;;14.27;;
45236;SDS011;30973;51.442;3.580;2022-12-18T04:04:16;25.88;;;14.02;;
45236;SDS011;30973;51.442;3.580;2022-12-18T04:06:45;26.42;;;14.07;;
45236;SDS011;30973;51.442;3.580;2022-12-18T04:09:13;21.73;;;13.05;;
45236;SDS011;30973;51.442;3.580;2022-12-18T04:11:45;22.15;;;12.40;;
45236;SDS011;30973;51.442;3.580;2022-12-18T04:14:15;26.08;;;13.45;;
45236;SDS011;30973;51.442;3.580;2022-12-18T04:16:47;25.15;;;12.73;;
45236;SDS011;30973;51.442;3.580;2022-12-18T04:19:17;23.80;;;12.40;;
45236;SDS011;30973;51.442;3.580;2022-12-18T04:21:48;20.17;;;11.73;;
45236;SDS011;30973;51.442;3.580;2022-12-18T04:24:20;21.38;;;11.82;;
45236;SDS011;30973;51.442;3.580;2022-12-18T04:27:02;23.75;;;12.50;;
45236;SDS011;30973;51.442;3.580;2022-12-18T04:29:37;25.42;;;13.07;;
45236;SDS011;30973;51.442;3.580;2022-12-18T04:32:05;22.20;;;12.65;;
45236;SDS011;30973;51.442;3.580;2022-12-18T04:34:32;23.10;;;12.43;;
45236;SDS011;30973;51.442;3.580;2022-12-18T04:37:00;20.20;;;11.10;;
45236;SDS011;30973;51.442;3.580;2022-12-18T04:39:28;23.17;;;12.38;;
45236;SDS011;30973;51.442;3.580;2022-12-18T04:42:00;25.60;;;12.65;;
45236;SDS011;30973;51.442;3.580;2022-12-18T04:44:32;22.08;;;11.90;;
45236;SDS011;30973;51.442;3.580;2022-12-18T04:47:00;22.70;;;10.93;;
45236;SDS011;30973;51.442;3.580;2022-12-18T04:49:28;19.65;;;11.63;;
45236;SDS011;30973;51.442;3.580;2022-12-18T04:51:55;21.50;;;10.85;;
45236;SDS011;30973;51.442;3.580;2022-12-18T04:54:22;22.98;;;11.63;;
45236;SDS011;30973;51.442;3.580;2022-12-18T04:56:50;18.85;;;11.23;;
45236;SDS011;30973;51.442;3.580;2022-12-18T04:59:18;20.48;;;10.50;;
45236;SDS011;30973;51.442;3.580;2022-12-18T05:01:45;22.52;;;11.80;;
45236;SDS011;30973;51.442;3.580;2022-12-18T05:04:13;19.95;;;10.77;;
45236;SDS011;30973;51.442;3.580;2022-12-18T05:06:40;19.58;;;10.40;;
45236;SDS011;30973;51.442;3.580;2022-12-18T05:09:08;25.08;;;11.80;;
45236;SDS011;30973;51.442;3.580;2022-12-18T05:11:35;21.92;;;11.73;;
45236;SDS011;30973;51.442;3.580;2022-12-18T05:14:02;20.55;;;10.98;;
45236;SDS011;30973;51.442;3.580;2022-12-18T05:16:30;23.30;;;11.05;;
45236;SDS011;30973;51.442;3.580;2022-12-18T05:18:57;21.83;;;11.45;;
45236;SDS011;30973;51.442;3.580;2022-12-18T05:21:25;21.48;;;10.70;;
45236;SDS011;30973;51.442;3.580;2022-12-18T05:23:52;20.52;;;12.48;;
45236;SDS011;30973;51.442;3.580;2022-12-18T05:26:19;20.25;;;10.63;;
45236;SDS011;30973;51.442;3.580;2022-12-18T05:28:47;19.77;;;9.50;;
45236;SDS011;30973;51.442;3.580;2022-12-18T05:31:14;15.98;;;9.05;;
45236;SDS011;30973;51.442;3.580;2022-12-18T05:33:42;19.45;;;9.55;;
45236;SDS011;30973;51.442;3.580;2022-12-18T05:36:10;17.17;;;10.00;;
45236;SDS011;30973;51.442;3.580;2022-12-18T05:38:38;17.30;;;9.25;;
45236;SDS011;30973;51.442;3.580;2022-12-18T05:41:06;15.98;;;9.02;;
45236;SDS011;30973;51.442;3.580;2022-12-18T05:43:38;16.83;;;9.65;;
45236;SDS011;30973;51.442;3.580;2022-12-18T05:46:10;17.80;;;9.30;;
45236;SDS011;30973;51.442;3.580;2022-12-18T05:48:38;16.15;;;10.00;;
45236;SDS011;30973;51.442;3.580;2022-12-18T05:51:06;18.83;;;9.50;;
45236;SDS011;30973;51.442;3.580;2022-12-18T05:53:35;18.45;;;9.25;;
45236;SDS011;30973;51.442;3.580;2022-12-18T05:56:04;16.25;;;9.20;;
45236;SDS011;30973;51.442;3.580;2022-12-18T05:58:32;15.13;;;9.20;;
45236;SDS011;30973;51.442;3.580;2022-12-18T06:01:07;12.88;;;7.05;;
45236;SDS011;30973;51.442;3.580;2022-12-18T06:03:36;17.10;;;8.05;;
45236;SDS011;30973;51.442;3.580;2022-12-18T06:06:04;15.63;;;7.78;;
45236;SDS011;30973;51.442;3.580;2022-12-18T06:08:31;15.82;;;8.55;;
45236;SDS011;30973;51.442;3.580;2022-12-18T06:10:59;14.77;;;7.35;;
45236;SDS011;30973;51.442;3.580;2022-12-18T06:13:26;15.65;;;7.57;;
45236;SDS011;30973;51.442;3.580;2022-12-18T06:15:53;17.52;;;7.88;;
45236;SDS011;30973;51.442;3.580;2022-12-18T06:18:21;12.57;;;7.15;;
45236;SDS011;30973;51.442;3.580;2022-12-18T06:20:55;11.93;;;6.28;;
45236;SDS011;30973;51.442;3.580;2022-12-18T06:23:23;12.13;;;6.85;;
45236;SDS011;30973;51.442;3.580;2022-12-18T06:25:50;11.48;;;6.78;;
45236;SDS011;30973;51.442;3.580;2022-12-18T06:28:18;11.75;;;6.78;;
45236;SDS011;30973;51.442;3.580;2022-12-18T06:30:46;9.20;;;5.32;;
45236;SDS011;30973;51.442;3.580;2022-12-18T06:33:15;12.02;;;6.30;;
45236;SDS011;30973;51.442;3.580;2022-12-18T06:35:42;12.20;;;6.18;;
45236;SDS011;30973;51.442;3.580;2022-12-18T06:38:10;8.80;;;5.68;;
45236;SDS011;30973;51.442;3.580;2022-12-18T06:40:38;9.18;;;5.07;;
45236;SDS011;30973;51.442;3.580;2022-12-18T06:43:05;11.32;;;5.43;;
45236;SDS011;30973;51.442;3.580;2022-12-18T06:45:33;10.10;;;5.68;;
45236;SDS011;30973;51.442;3.580;2022-12-18T06:48:01;11.15;;;5.97;;
45236;SDS011;30973;51.442;3.580;2022-12-18T06:50:28;11.40;;;5.93;;
45236;SDS011;30973;51.442;3.580;2022-12-18T06:52:56;13.65;;;6.85;;
45236;SDS011;30973;51.442;3.580;2022-12-18T06:55:23;10.40;;;6.30;;
45236;SDS011;30973;51.442;3.580;2022-12-18T06:57:51;12.10;;;6.88;;
45236;SDS011;30973;51.442;3.580;2022-12-18T07:00:18;13.95;;;6.65;;
45236;SDS011;30973;51.442;3.580;2022-12-18T07:02:46;9.73;;;5.97;;
45236;SDS011;30973;51.442;3.580;2022-12-18T07:05:13;13.00;;;5.93;;
45236;SDS011;30973;51.442;3.580;2022-12-18T07:08:12;11.20;;;6.15;;
45236;SDS011;30973;51.442;3.580;2022-12-18T07:10:55;11.43;;;6.47;;
45236;SDS011;30973;51.442;3.580;2022-12-18T07:13:23;8.48;;;5.03;;
45236;SDS011;30973;51.442;3.580;2022-12-18T07:15:50;11.95;;;5.93;;
45236;SDS011;30973;51.442;3.580;2022-12-18T07:18:18;9.13;;;4.90;;
45236;SDS011;30973;51.442;3.580;2022-12-18T07:20:45;11.95;;;5.78;;
45236;SDS011;30973;51.442;3.580;2022-12-18T07:23:14;12.50;;;6.47;;
45236;SDS011;30973;51.442;3.580;2022-12-18T07:25:41;10.73;;;5.90;;
45236;SDS011;30973;51.442;3.580;2022-12-18T07:28:08;12.65;;;5.97;;
45236;SDS011;30973;51.442;3.580;2022-12-18T07:30:42;10.95;;;6.10;;
45236;SDS011;30973;51.442;3.580;2022-12-18T07:33:09;11.75;;;5.55;;
45236;SDS011;30973;51.442;3.580;2022-12-18T07:35:37;11.65;;;5.70;;
45236;SDS011;30973;51.442;3.580;2022-12-18T07:38:05;12.10;;;5.82;;
45236;SDS011;30973;51.442;3.580;2022-12-18T07:40:32;8.85;;;4.90;;
45236;SDS011;30973;51.442;3.580;2022-12-18T07:42:59;13.82;;;6.03;;
45236;SDS011;30973;51.442;3.580;2022-12-18T07:45:27;13.23;;;5.90;;
45236;SDS011;30973;51.442;3.580;2022-12-18T07:47:56;12.95;;;6.10;;
45236;SDS011;30973;51.442;3.580;2022-12-18T07:50:23;10.80;;;6.28;;
45236;SDS011;30973;51.442;3.580;2022-12-18T07:52:50;12.30;;;5.90;;
45236;SDS011;30973;51.442;3.580;2022-12-18T07:55:18;10.13;;;5.55;;
45236;SDS011;30973;51.442;3.580;2022-12-18T07:57:45;12.32;;;6.03;;
45236;SDS011;30973;51.442;3.580;2022-12-18T08:00:20;11.55;;;5.85;;
45236;SDS011;30973;51.442;3.580;2022-12-18T08:02:48;9.23;;;5.50;;
45236;SDS011;30973;51.442;3.580;2022-12-18T08:05:15;10.38;;;6.13;;
45236;SDS011;30973;51.442;3.580;2022-12-18T08:07:43;9.70;;;5.07;;
45236;SDS011;30973;51.442;3.580;2022-12-18T08:10:10;10.93;;;6.05;;
45236;SDS011;30973;51.442;3.580;2022-12-18T08:12:38;13.60;;;5.78;;
45236;SDS011;30973;51.442;3.580;2022-12-18T08:15:05;11.68;;;6.15;;
45236;SDS011;30973;51.442;3.580;2022-12-18T08:17:33;10.60;;;6.13;;
45236;SDS011;30973;51.442;3.580;2022-12-18T08:20:00;9.95;;;5.60;;
45236;SDS011;30973;51.442;3.580;2022-12-18T08:22:28;11.68;;;5.50;;
45236;SDS011;30973;51.442;3.580;2022-12-18T08:24:55;8.48;;;5.38;;
45236;SDS011;30973;51.442;3.580;2022-12-18T08:27:22;9.10;;;5.50;;
45236;SDS011;30973;51.442;3.580;2022-12-18T08:29:55;9.73;;;5.07;;
45236;SDS011;30973;51.442;3.580;2022-12-18T08:32:23;7.85;;;4.50;;
45236;SDS011;30973;51.442;3.580;2022-12-18T08:34:51;11.23;;;5.05;;
45236;SDS011;30973;51.442;3.580;2022-12-18T08:37:18;9.82;;;4.88;;
45236;SDS011;30973;51.442;3.580;2022-12-18T08:39:46;9.85;;;5.10;;
45236;SDS011;30973;51.442;3.580;2022-12-18T08:42:13;9.82;;;4.80;;
45236;SDS011;30973;51.442;3.580;2022-12-18T08:44:59;9.05;;;5.32;;
45236;SDS011;30973;51.442;3.580;2022-12-18T08:47:27;7.97;;;4.47;;
45236;SDS011;30973;51.442;3.580;2022-12-18T08:49:56;10.23;;;4.93;;
45236;SDS011;30973;51.442;3.580;2022-12-18T08:52:23;9.20;;;4.70;;
45236;SDS011;30973;51.442;3.580;2022-12-18T08:54:51;9.13;;;5.40;;
45236;SDS011;30973;51.442;3.580;2022-12-18T08:57:18;9.25;;;5.38;;
45236;SDS011;30973;51.442;3.580;2022-12-18T08:59:45;8.68;;;5.03;;
45236;SDS011;30973;51.442;3.580;2022-12-18T09:02:15;11.95;;;6.13;;
45236;SDS011;30973;51.442;3.580;2022-12-18T09:04:46;11.93;;;5.78;;
45236;SDS011;30973;51.442;3.580;2022-12-18T09:07:22;12.85;;;6.43;;
45236;SDS011;30973;51.442;3.580;2022-12-18T09:09:49;9.45;;;5.22;;
45236;SDS011;30973;51.442;3.580;2022-12-18T09:12:17;10.48;;;6.10;;
45236;SDS011;30973;51.442;3.580;2022-12-18T09:14:44;12.30;;;6.18;;
45236;SDS011;30973;51.442;3.580;2022-12-18T09:17:12;9.30;;;5.78;;
45236;SDS011;30973;51.442;3.580;2022-12-18T09:19:39;9.73;;;5.82;;
45236;SDS011;30973;51.442;3.580;2022-12-18T09:22:07;11.70;;;6.80;;
45236;SDS011;30973;51.442;3.580;2022-12-18T09:24:36;11.38;;;6.72;;
45236;SDS011;30973;51.442;3.580;2022-12-18T09:27:03;9.55;;;5.43;;
45236;SDS011;30973;51.442;3.580;2022-12-18T09:29:31;12.32;;;6.15;;
45236;SDS011;30973;51.442;3.580;2022-12-18T09:31:59;14.23;;;6.07;;
45236;SDS011;30973;51.442;3.580;2022-12-18T09:34:26;9.68;;;5.45;;
45236;SDS011;30973;51.442;3.580;2022-12-18T09:36:59;13.50;;;6.50;;
45236;SDS011;30973;51.442;3.580;2022-12-18T09:39:55;11.65;;;6.70;;
45236;SDS011;30973;51.442;3.580;2022-12-18T09:45:24;12.52;;;6.70;;
45236;SDS011;30973;51.442;3.580;2022-12-18T09:48:19;14.00;;;6.88;;
45236;SDS011;30973;51.442;3.580;2022-12-18T09:50:53;12.70;;;6.35;;
45236;SDS011;30973;51.442;3.580;2022-12-18T09:53:24;16.52;;;9.52;;
45236;SDS011;30973;51.442;3.580;2022-12-18T09:55:53;13.23;;;6.93;;
45236;SDS011;30973;51.442;3.580;2022-12-18T09:58:28;12.30;;;6.75;;
45236;SDS011;30973;51.442;3.580;2022-12-18T10:00:56;14.23;;;7.97;;
45236;SDS011;30973;51.442;3.580;2022-12-18T10:03:24;12.35;;;7.22;;
45236;SDS011;30973;51.442;3.580;2022-12-18T10:06:02;13.60;;;7.25;;
45236;SDS011;30973;51.442;3.580;2022-12-18T10:14:30;15.00;;;7.05;;
45236;SDS011;30973;51.442;3.580;2022-12-18T10:27:36;15.43;;;8.63;;
45236;SDS011;30973;51.442;3.580;2022-12-18T10:31:03;13.07;;;7.15;;
45236;SDS011;30973;51.442;3.580;2022-12-18T10:36:52;18.83;;;8.80;;
45236;SDS011;30973;51.442;3.580;2022-12-18T10:39:39;12.85;;;7.75;;
45236;SDS011;30973;51.442;3.580;2022-12-18T10:42:37;16.23;;;7.18;;
45236;SDS011;30973;51.442;3.580;2022-12-18T10:45:35;12.82;;;7.43;;
45236;SDS011;30973;51.442;3.580;2022-12-18T10:48:57;17.40;;;8.73;;
45236;SDS011;30973;51.442;3.580;2022-12-18T10:51:39;13.68;;;7.50;;
45236;SDS011;30973;51.442;3.580;2022-12-18T10:54:26;12.45;;;7.65;;
45236;SDS011;30973;51.442;3.580;2022-12-18T10:57:15;11.48;;;6.55;;
45236;SDS011;30973;51.442;3.580;2022-12-18T11:00:28;13.38;;;7.80;;
45236;SDS011;30973;51.442;3.580;2022-12-18T11:03:31;13.15;;;7.30;;
45236;SDS011;30973;51.442;3.580;2022-12-18T11:06:32;14.18;;;7.20;;
45236;SDS011;30973;51.442;3.580;2022-12-18T11:19:40;13.52;;;6.95;;
45236;SDS011;30973;51.442;3.580;2022-12-18T11:22:35;12.95;;;7.40;;
45236;SDS011;30973;51.442;3.580;2022-12-18T11:36:05;13.75;;;6.93;;
45236;SDS011;30973;51.442;3.580;2022-12-18T11:43:26;14.55;;;7.32;;
45236;SDS011;30973;51.442;3.580;2022-12-18T11:46:11;13.05;;;7.55;;
45236;SDS011;30973;51.442;3.580;2022-12-18T11:48:48;15.45;;;7.70;;
45236;SDS011;30973;51.442;3.580;2022-12-18T11:51:53;15.35;;;7.63;;
45236;SDS011;30973;51.442;3.580;2022-12-18T11:54:22;13.07;;;7.30;;
45236;SDS011;30973;51.442;3.580;2022-12-18T11:56:58;17.77;;;7.90;;
45236;SDS011;30973;51.442;3.580;2022-12-18T11:59:46;15.00;;;8.30;;
45236;SDS011;30973;51.442;3.580;2022-12-18T12:02:27;14.25;;;7.82;;
45236;SDS011;30973;51.442;3.580;2022-12-18T12:31:24;13.88;;;8.18;;
45236;SDS011;30973;51.442;3.580;2022-12-18T12:36:36;16.35;;;8.63;;
45236;SDS011;30973;51.442;3.580;2022-12-18T12:39:36;14.68;;;8.82;;
45236;SDS011;30973;51.442;3.580;2022-12-18T12:42:05;16.55;;;9.65;;
45236;SDS011;30973;51.442;3.580;2022-12-18T12:44:54;17.13;;;8.65;;
45236;SDS011;30973;51.442;3.580;2022-12-18T12:47:24;15.93;;;9.55;;
45236;SDS011;30973;51.442;3.580;2022-12-18T12:49:53;15.35;;;8.88;;
45236;SDS011;30973;51.442;3.580;2022-12-18T12:52:28;16.08;;;9.02;;
45236;SDS011;30973;51.442;3.580;2022-12-18T12:54:57;15.30;;;9.15;;
45236;SDS011;30973;51.442;3.580;2022-12-18T13:00:03;15.65;;;9.52;;
45236;SDS011;30973;51.442;3.580;2022-12-18T13:02:39;16.02;;;8.98;;
45236;SDS011;30973;51.442;3.580;2022-12-18T13:07:56;13.82;;;8.70;;
45236;SDS011;30973;51.442;3.580;2022-12-18T13:10:34;17.15;;;9.20;;
45236;SDS011;30973;51.442;3.580;2022-12-18T13:13:07;18.35;;;10.48;;
45236;SDS011;30973;51.442;3.580;2022-12-18T13:15:43;16.42;;;9.85;;
45236;SDS011;30973;51.442;3.580;2022-12-18T13:25:53;16.23;;;9.90;;
45236;SDS011;30973;51.442;3.580;2022-12-18T13:28:22;17.15;;;10.52;;
45236;SDS011;30973;51.442;3.580;2022-12-18T13:30:55;17.48;;;10.30;;
45236;SDS011;30973;51.442;3.580;2022-12-18T13:36:03;16.80;;;10.25;;
45236;SDS011;30973;51.442;3.580;2022-12-18T13:38:39;17.35;;;10.60;;
45236;SDS011;30973;51.442;3.580;2022-12-18T13:43:41;20.38;;;11.65;;
45236;SDS011;30973;51.442;3.580;2022-12-18T13:51:18;18.58;;;9.63;;
45236;SDS011;30973;51.442;3.580;2022-12-18T13:56:30;20.15;;;12.18;;
45236;SDS011;30973;51.442;3.580;2022-12-18T13:59:10;17.75;;;11.00;;
45236;SDS011;30973;51.442;3.580;2022-12-18T14:01:58;22.25;;;11.82;;
45236;SDS011;30973;51.442;3.580;2022-12-18T14:04:31;19.02;;;11.20;;
45236;SDS011;30973;51.442;3.580;2022-12-18T14:07:02;18.90;;;11.40;;
45236;SDS011;30973;51.442;3.580;2022-12-18T14:09:34;21.65;;;11.95;;
45236;SDS011;30973;51.442;3.580;2022-12-18T14:12:04;20.27;;;12.60;;
45236;SDS011;30973;51.442;3.580;2022-12-18T14:14:51;28.15;;;13.43;;
45236;SDS011;30973;51.442;3.580;2022-12-18T14:17:20;20.95;;;11.77;;
45236;SDS011;30973;51.442;3.580;2022-12-18T14:19:49;20.50;;;12.60;;
45236;SDS011;30973;51.442;3.580;2022-12-18T14:22:17;22.13;;;12.85;;
45236;SDS011;30973;51.442;3.580;2022-12-18T14:24:46;22.80;;;12.65;;
45236;SDS011;30973;51.442;3.580;2022-12-18T14:27:21;23.60;;;12.75;;
45236;SDS011;30973;51.442;3.580;2022-12-18T14:29:49;21.30;;;12.68;;
45236;SDS011;30973;51.442;3.580;2022-12-18T14:32:18;23.42;;;13.05;;
45236;SDS011;30973;51.442;3.580;2022-12-18T14:34:47;24.42;;;13.90;;
45236;SDS011;30973;51.442;3.580;2022-12-18T14:37:16;21.92;;;12.88;;
45236;SDS011;30973;51.442;3.580;2022-12-18T14:39:54;23.67;;;13.43;;
45236;SDS011;30973;51.442;3.580;2022-12-18T14:48:46;22.15;;;12.85;;
45236;SDS011;30973;51.442;3.580;2022-12-18T14:51:18;23.23;;;12.77;;
45236;SDS011;30973;51.442;3.580;2022-12-18T14:53:47;24.08;;;14.02;;
45236;SDS011;30973;51.442;3.580;2022-12-18T14:56:30;25.17;;;13.57;;
45236;SDS011;30973;51.442;3.580;2022-12-18T14:58:59;29.88;;;13.77;;
45236;SDS011;30973;51.442;3.580;2022-12-18T15:01:31;24.42;;;13.60;;
45236;SDS011;30973;51.442;3.580;2022-12-18T15:04:00;27.13;;;13.70;;
45236;SDS011;30973;51.442;3.580;2022-12-18T15:06:30;25.98;;;14.02;;
45236;SDS011;30973;51.442;3.580;2022-12-18T15:08:59;23.70;;;12.90;;
45236;SDS011;30973;51.442;3.580;2022-12-18T15:11:28;23.40;;;13.10;;
45236;SDS011;30973;51.442;3.580;2022-12-18T15:13:57;25.50;;;14.43;;
45236;SDS011;30973;51.442;3.580;2022-12-18T15:16:32;28.30;;;15.45;;
45236;SDS011;30973;51.442;3.580;2022-12-18T15:19:11;29.05;;;15.60;;
45236;SDS011;30973;51.442;3.580;2022-12-18T15:21:39;23.45;;;13.95;;
45236;SDS011;30973;51.442;3.580;2022-12-18T15:24:16;30.27;;;15.70;;
45236;SDS011;30973;51.442;3.580;2022-12-18T15:26:44;23.20;;;13.25;;
45236;SDS011;30973;51.442;3.580;2022-12-18T15:29:19;28.27;;;14.95;;
45236;SDS011;30973;51.442;3.580;2022-12-18T15:32:03;22.63;;;13.07;;
45236;SDS011;30973;51.442;3.580;2022-12-18T15:34:31;26.17;;;15.32;;
45236;SDS011;30973;51.442;3.580;2022-12-18T15:37:00;23.45;;;13.52;;
45236;SDS011;30973;51.442;3.580;2022-12-18T15:39:30;25.25;;;13.98;;
45236;SDS011;30973;51.442;3.580;2022-12-18T15:42:02;25.45;;;13.88;;
45236;SDS011;30973;51.442;3.580;2022-12-18T15:44:48;24.83;;;13.50;;
45236;SDS011;30973;51.442;3.580;2022-12-18T15:47:15;24.35;;;13.85;;
45236;SDS011;30973;51.442;3.580;2022-12-18T15:53:02;27.55;;;14.82;;
45236;SDS011;30973;51.442;3.580;2022-12-18T15:56:07;26.45;;;13.93;;
45236;SDS011;30973;51.442;3.580;2022-12-18T15:58:59;27.52;;;15.65;;
45236;SDS011;30973;51.442;3.580;2022-12-18T16:01:48;23.23;;;12.90;;
45236;SDS011;30973;51.442;3.580;2022-12-18T16:04:44;26.48;;;14.02;;
45236;SDS011;30973;51.442;3.580;2022-12-18T16:07:14;24.83;;;14.15;;
45236;SDS011;30973;51.442;3.580;2022-12-18T16:09:50;27.90;;;13.93;;
45236;SDS011;30973;51.442;3.580;2022-12-18T16:12:20;27.13;;;14.02;;
45236;SDS011;30973;51.442;3.580;2022-12-18T16:14:48;26.38;;;14.00;;
45236;SDS011;30973;51.442;3.580;2022-12-18T16:17:15;26.17;;;14.25;;
45236;SDS011;30973;51.442;3.580;2022-12-18T16:19:43;26.88;;;14.60;;
45236;SDS011;30973;51.442;3.580;2022-12-18T16:22:15;28.42;;;15.02;;
45236;SDS011;30973;51.442;3.580;2022-12-18T16:24:47;25.85;;;13.77;;
45236;SDS011;30973;51.442;3.580;2022-12-18T16:27:20;26.98;;;15.20;;
45236;SDS011;30973;51.442;3.580;2022-12-18T16:30:00;26.40;;;14.23;;
45236;SDS011;30973;51.442;3.580;2022-12-18T16:32:27;26.00;;;13.88;;
45236;SDS011;30973;51.442;3.580;2022-12-18T16:34:59;30.60;;;15.98;;
45236;SDS011;30973;51.442;3.580;2022-12-18T16:37:31;25.40;;;15.55;;
45236;SDS011;30973;51.442;3.580;2022-12-18T16:40:10;27.67;;;14.45;;
45236;SDS011;30973;51.442;3.580;2022-12-18T16:42:48;28.65;;;14.55;;
45236;SDS011;30973;51.442;3.580;2022-12-18T16:45:19;27.50;;;15.30;;
45236;SDS011;30973;51.442;3.580;2022-12-18T16:47:48;28.67;;;15.07;;
45236;SDS011;30973;51.442;3.580;2022-12-18T16:50:15;30.25;;;15.82;;
45236;SDS011;30973;51.442;3.580;2022-12-18T16:52:43;29.38;;;15.85;;
45236;SDS011;30973;51.442;3.580;2022-12-18T16:55:10;29.02;;;15.40;;
45236;SDS011;30973;51.442;3.580;2022-12-18T16:57:38;28.50;;;15.57;;
45236;SDS011;30973;51.442;3.580;2022-12-18T17:00:09;27.88;;;15.23;;
45236;SDS011;30973;51.442;3.580;2022-12-18T17:02:37;27.60;;;14.68;;
45236;SDS011;30973;51.442;3.580;2022-12-18T17:05:05;26.95;;;14.90;;
45236;SDS011;30973;51.442;3.580;2022-12-18T17:07:34;33.75;;;18.15;;
45236;SDS011;30973;51.442;3.580;2022-12-18T17:10:12;31.38;;;17.75;;